createdAt,value
2024-05-09T19:32:32.934Z,12.60
2024-05-09T19:34:34.830Z,12.10
2024-05-09T19:36:36.840Z,11.90
2024-05-09T19:38:39.950Z,11.70
2024-05-09T19:40:42.128Z,11.50
2024-05-09T19:42:44.129Z,11.30
2024-05-09T19:44:45.986Z,11.20
2024-05-09T19:46:48.276Z,11.20
2024-05-09T19:48:50.337Z,11.10
2024-05-09T19:50:53.259Z,11.00
2024-05-09T19:52:55.438Z,10.80
2024-05-09T19:54:57.370Z,10.70
2024-05-09T19:56:59.423Z,10.70
2024-05-09T19:59:01.391Z,10.60
2024-05-09T20:01:03.535Z,10.50
2024-05-09T20:03:08.592Z,10.60
2024-05-09T20:05:10.927Z,10.60
2024-05-09T20:07:13.143Z,10.40
2024-05-09T20:09:15.087Z,10.20
2024-05-09T20:11:17.081Z,10.20
2024-05-09T20:13:19.174Z,10.10
2024-05-09T20:15:21.029Z,10.00
2024-05-09T20:17:23.164Z,9.90
2024-05-09T20:19:26.472Z,10.00
2024-05-09T20:21:28.501Z,10.10
2024-05-09T20:23:30.387Z,10.00
2024-05-09T20:25:32.354Z,10.00
2024-05-09T20:27:34.245Z,9.90
2024-05-09T20:29:36.233Z,9.80
2024-05-09T20:31:38.892Z,9.90
2024-05-09T20:33:40.845Z,9.80
2024-05-09T20:35:42.779Z,9.80
2024-05-09T20:37:44.803Z,9.80
2024-05-09T20:39:46.770Z,9.70
2024-05-09T20:41:48.633Z,9.70
2024-05-09T20:43:50.509Z,9.60
2024-05-09T20:45:52.408Z,9.50
2024-05-09T20:47:56.851Z,9.40
2024-05-09T20:49:58.976Z,9.30
2024-05-09T20:52:01.125Z,9.30
2024-05-09T20:54:03.228Z,9.40
2024-05-09T20:56:05.483Z,9.50
2024-05-09T20:58:08.095Z,9.40
2024-05-09T21:00:15.364Z,9.40
2024-05-09T21:02:21.183Z,9.30
2024-05-09T21:04:23.652Z,9.30
2024-05-09T21:06:25.802Z,9.40
2024-05-09T21:08:27.913Z,9.50
2024-05-09T21:10:32.600Z,9.60
2024-05-09T21:12:35.864Z,9.60
2024-05-09T21:14:37.945Z,9.60
2024-05-09T21:16:39.962Z,9.50
2024-05-09T21:18:42.202Z,9.40
2024-05-09T21:20:44.104Z,9.40
2024-05-09T21:22:45.964Z,9.40
2024-05-09T21:24:47.953Z,9.30
2024-05-09T21:26:52.852Z,9.30
2024-05-09T21:28:55.566Z,9.20
2024-05-09T21:30:57.432Z,9.30
2024-05-09T21:32:59.979Z,9.20
2024-05-09T21:35:04.506Z,9.20
2024-05-09T21:37:06.431Z,9.10
2024-05-09T21:39:10.696Z,9.10
2024-05-09T21:41:13.292Z,9.10
2024-05-09T21:43:15.539Z,9.00
2024-05-09T21:45:17.486Z,8.90
2024-05-09T21:47:19.434Z,8.90
2024-05-09T21:49:22.770Z,8.90
2024-05-09T21:51:27.900Z,8.90
2024-05-09T21:53:29.742Z,8.80
2024-05-09T21:55:31.645Z,8.80
2024-05-09T21:57:33.563Z,8.80
2024-05-09T21:59:35.611Z,8.70
2024-05-09T22:01:37.584Z,8.70
2024-05-09T22:03:41.465Z,8.60
2024-05-09T22:05:45.190Z,8.60
2024-05-09T22:07:47.387Z,8.60
2024-05-09T22:09:49.342Z,8.50
2024-05-09T22:11:52.954Z,8.50
2024-05-09T22:13:55.841Z,8.50
2024-05-09T22:15:57.933Z,8.50
2024-05-09T22:17:59.869Z,8.40
2024-05-09T22:20:11.690Z,8.40
2024-05-09T22:22:16.894Z,8.40
2024-05-09T22:24:18.881Z,8.40
2024-05-09T22:26:20.718Z,8.30
2024-05-09T22:28:22.714Z,8.20
2024-05-09T22:30:33.158Z,8.20
2024-05-09T22:32:39.851Z,8.10
2024-05-09T22:34:41.768Z,8.10
2024-05-09T22:36:43.670Z,8.10
2024-05-09T22:38:48.823Z,8.10
2024-05-09T22:40:52.301Z,8.10
2024-05-09T22:42:54.446Z,8.10
2024-05-09T22:44:56.430Z,8.10
2024-05-09T22:46:58.360Z,8.10
2024-05-09T22:49:00.510Z,8.00
2024-05-09T22:51:02.568Z,7.90
2024-05-09T22:53:05.537Z,7.90
2024-05-09T22:55:07.696Z,7.90
2024-05-09T22:57:09.889Z,8.00
2024-05-09T22:59:11.705Z,7.90
2024-05-09T23:01:16.315Z,7.80
2024-05-09T23:03:21.123Z,7.80
2024-05-09T23:05:23.657Z,7.80
2024-05-09T23:07:25.629Z,7.70
2024-05-09T23:09:27.639Z,7.60
2024-05-09T23:11:29.533Z,7.60
2024-05-09T23:13:33.164Z,7.60
2024-05-09T23:15:35.684Z,7.50
2024-05-09T23:17:37.824Z,7.50
2024-05-09T23:19:39.925Z,7.50
2024-05-09T23:21:41.951Z,7.40
2024-05-09T23:23:43.883Z,7.40
2024-05-09T23:25:47.470Z,7.40
2024-05-09T23:27:49.420Z,7.40
2024-05-09T23:29:51.369Z,7.40
2024-05-09T23:31:53.450Z,7.40
2024-05-09T23:33:56.032Z,7.30
2024-05-09T23:35:58.324Z,7.30
2024-05-09T23:38:00.153Z,7.30
2024-05-09T23:40:02.302Z,7.30
2024-05-09T23:42:05.843Z,7.30
2024-05-09T23:44:07.797Z,7.30
2024-05-09T23:46:10.948Z,7.30
2024-05-09T23:48:12.948Z,7.30
2024-05-09T23:50:20.526Z,7.30
2024-05-09T23:52:26.003Z,7.30
2024-05-09T23:54:27.840Z,7.40
2024-05-09T23:56:29.700Z,7.30
2024-05-09T23:58:31.661Z,7.30
